Colwich, United Kingdom
Current Conditions -  °F | °C
As of 5:50 AM on Thursday 27 Nov 2014 (Local Time) from EGBB Reporting Station
Drizzle Drizzle  
Wind Chill: 45°   Ceiling: 100
Heat Index: 45°   Visibility: 1.2mi
Dew Point: 45°   Wind: 2mph
Humidity: 100%   Direction: 120°ESE
Pressure: 29.62"   Gusts: NA
Location:  52.79°N, 1.98°W
Report Text: EGBB 270550Z 12002KT 2000 -DZ BR BKN001 OVC004 07/07 Q1003
Loading
Personal Weather Stations






























Interactive Weather Map New forecast layout! Learn more

10-Day Weather Forecast

Advertisements
Track Severe Weather on mobile